sensor_id;sensor_type;location;lat;lon;timestamp;pressure;altitude;pressure_sealevel;temperature;humidity
20013;BME280;10167;42.852;23.042;2023-01-01T00:01:22;96290.06;;;3.45;100.00
20013;BME280;10167;42.852;23.042;2023-01-01T00:03:54;96286.16;;;3.49;100.00
20013;BME280;10167;42.852;23.042;2023-01-01T00:06:24;96299.88;;;3.51;100.00
20013;BME280;10167;42.852;23.042;2023-01-01T00:08:53;96291.56;;;3.56;100.00
20013;BME280;10167;42.852;23.042;2023-01-01T00:11:36;96297.47;;;3.50;100.00
20013;BME280;10167;42.852;23.042;2023-01-01T00:14:06;96302.19;;;3.54;100.00
20013;BME280;10167;42.852;23.042;2023-01-01T00:16:39;96307.72;;;3.43;100.00
20013;BME280;10167;42.852;23.042;2023-01-01T00:19:09;96307.31;;;3.22;100.00
20013;BME280;10167;42.852;23.042;2023-01-01T00:21:39;96310.47;;;3.34;100.00
20013;BME280;10167;42.852;23.042;2023-01-01T00:24:08;96305.22;;;3.34;100.00
20013;BME280;10167;42.852;23.042;2023-01-01T00:26:37;96311.44;;;3.33;100.00
20013;BME280;10167;42.852;23.042;2023-01-01T00:29:06;96308.16;;;3.31;100.00
20013;BME280;10167;42.852;23.042;2023-01-01T00:31:36;96306.03;;;3.26;100.00
20013;BME280;10167;42.852;23.042;2023-01-01T00:34:05;96310.09;;;3.28;100.00
20013;BME280;10167;42.852;23.042;2023-01-01T00:36:36;96311.41;;;3.24;100.00
20013;BME280;10167;42.852;23.042;2023-01-01T00:39:05;96320.38;;;3.14;100.00
20013;BME280;10167;42.852;23.042;2023-01-01T00:41:34;96323.66;;;3.16;100.00
20013;BME280;10167;42.852;23.042;2023-01-01T00:44:03;96331.28;;;3.09;100.00
20013;BME280;10167;42.852;23.042;2023-01-01T00:46:33;96320.00;;;3.09;100.00
20013;BME280;10167;42.852;23.042;2023-01-01T00:49:02;96318.88;;;3.11;100.00
20013;BME280;10167;42.852;23.042;2023-01-01T00:51:31;96327.25;;;2.89;100.00
20013;BME280;10167;42.852;23.042;2023-01-01T00:54:05;96330.44;;;3.01;100.00
20013;BME280;10167;42.852;23.042;2023-01-01T00:56:34;96330.28;;;3.02;100.00
20013;BME280;10167;42.852;23.042;2023-01-01T00:59:04;96322.09;;;3.05;100.00
20013;BME280;10167;42.852;23.042;2023-01-01T01:01:33;96318.19;;;3.09;100.00
20013;BME280;10167;42.852;23.042;2023-01-01T01:04:02;96319.47;;;3.05;100.00
20013;BME280;10167;42.852;23.042;2023-01-01T01:06:32;96317.69;;;3.06;100.00
20013;BME280;10167;42.852;23.042;2023-01-01T01:09:01;96321.13;;;3.06;100.00
20013;BME280;10167;42.852;23.042;2023-01-01T01:11:32;96320.31;;;3.06;100.00
20013;BME280;10167;42.852;23.042;2023-01-01T01:14:02;96328.81;;;3.08;100.00
20013;BME280;10167;42.852;23.042;2023-01-01T01:16:32;96315.88;;;3.06;100.00
20013;BME280;10167;42.852;23.042;2023-01-01T01:19:03;96317.53;;;3.07;100.00
20013;BME280;10167;42.852;23.042;2023-01-01T01:21:33;96318.50;;;3.06;100.00
20013;BME280;10167;42.852;23.042;2023-01-01T01:24:03;96322.88;;;2.98;100.00
20013;BME280;10167;42.852;23.042;2023-01-01T01:26:34;96323.91;;;3.05;100.00
20013;BME280;10167;42.852;23.042;2023-01-01T01:29:04;96320.78;;;3.01;100.00
20013;BME280;10167;42.852;23.042;2023-01-01T01:31:33;96329.09;;;2.97;100.00
20013;BME280;10167;42.852;23.042;2023-01-01T01:34:02;96320.88;;;2.91;100.00
20013;BME280;10167;42.852;23.042;2023-01-01T01:36:32;96319.69;;;2.86;100.00
20013;BME280;10167;42.852;23.042;2023-01-01T01:39:01;96316.09;;;2.87;100.00
20013;BME280;10167;42.852;23.042;2023-01-01T01:41:30;96318.72;;;2.87;100.00
20013;BME280;10167;42.852;23.042;2023-01-01T01:44:05;96321.34;;;2.87;100.00
20013;BME280;10167;42.852;23.042;2023-01-01T01:46:38;96308.63;;;2.92;100.00
20013;BME280;10167;42.852;23.042;2023-01-01T01:49:13;96317.34;;;3.01;100.00
20013;BME280;10167;42.852;23.042;2023-01-01T01:51:43;96307.31;;;2.96;100.00
20013;BME280;10167;42.852;23.042;2023-01-01T01:54:16;96314.56;;;3.02;100.00
20013;BME280;10167;42.852;23.042;2023-01-01T01:56:50;96315.88;;;3.06;100.00
20013;BME280;10167;42.852;23.042;2023-01-01T01:59:21;96315.41;;;3.03;100.00
20013;BME280;10167;42.852;23.042;2023-01-01T02:01:53;96317.94;;;2.95;100.00
20013;BME280;10167;42.852;23.042;2023-01-01T02:04:22;96322.34;;;2.94;100.00
20013;BME280;10167;42.852;23.042;2023-01-01T02:06:51;96320.56;;;2.95;100.00
20013;BME280;10167;42.852;23.042;2023-01-01T02:09:21;96317.59;;;2.89;100.00
20013;BME280;10167;42.852;23.042;2023-01-01T02:11:51;96308.63;;;2.92;100.00
20013;BME280;10167;42.852;23.042;2023-01-01T02:14:21;96311.28;;;3.00;100.00
20013;BME280;10167;42.852;23.042;2023-01-01T02:16:55;96308.38;;;3.03;100.00
20013;BME280;10167;42.852;23.042;2023-01-01T02:19:34;96312.78;;;3.03;100.00
20013;BME280;10167;42.852;23.042;2023-01-01T02:22:12;96316.06;;;3.05;100.00
20013;BME280;10167;42.852;23.042;2023-01-01T02:24:50;96317.88;;;3.04;100.00
20013;BME280;10167;42.852;23.042;2023-01-01T02:27:31;96315.56;;;3.01;100.00
20013;BME280;10167;42.852;23.042;2023-01-01T02:30:07;96311.19;;;2.84;100.00
20013;BME280;10167;42.852;23.042;2023-01-01T02:32:40;96313.91;;;2.74;100.00
20013;BME280;10167;42.852;23.042;2023-01-01T02:35:13;96315.53;;;2.75;100.00
20013;BME280;10167;42.852;23.042;2023-01-01T02:38:05;96316.22;;;2.77;100.00
20013;BME280;10167;42.852;23.042;2023-01-01T02:40:41;96309.78;;;2.72;100.00
20013;BME280;10167;42.852;23.042;2023-01-01T02:43:12;96310.41;;;2.66;100.00
20013;BME280;10167;42.852;23.042;2023-01-01T02:45:49;96310.00;;;2.52;100.00
20013;BME280;10167;42.852;23.042;2023-01-01T02:48:37;96304.31;;;2.39;100.00
20013;BME280;10167;42.852;23.042;2023-01-01T02:51:16;96310.13;;;2.51;100.00
20013;BME280;10167;42.852;23.042;2023-01-01T02:53:54;96307.53;;;2.51;100.00
20013;BME280;10167;42.852;23.042;2023-01-01T02:56:33;96303.59;;;2.47;100.00
20013;BME280;10167;42.852;23.042;2023-01-01T02:59:14;96293.28;;;2.28;100.00
20013;BME280;10167;42.852;23.042;2023-01-01T03:02:10;96299.13;;;2.22;100.00
20013;BME280;10167;42.852;23.042;2023-01-01T03:04:48;96304.34;;;1.86;100.00
20013;BME280;10167;42.852;23.042;2023-01-01T03:07:25;96309.34;;;2.15;100.00
20013;BME280;10167;42.852;23.042;2023-01-01T03:10:02;96308.16;;;2.27;100.00
20013;BME280;10167;42.852;23.042;2023-01-01T03:12:36;96302.56;;;2.04;100.00
20013;BME280;10167;42.852;23.042;2023-01-01T03:15:18;96309.06;;;2.18;100.00
20013;BME280;10167;42.852;23.042;2023-01-01T03:17:57;96319.97;;;2.13;100.00
20013;BME280;10167;42.852;23.042;2023-01-01T03:20:32;96310.84;;;2.17;100.00
20013;BME280;10167;42.852;23.042;2023-01-01T03:23:05;96307.25;;;2.18;100.00
20013;BME280;10167;42.852;23.042;2023-01-01T03:25:38;96307.06;;;2.12;100.00
20013;BME280;10167;42.852;23.042;2023-01-01T03:28:13;96300.09;;;2.21;100.00
20013;BME280;10167;42.852;23.042;2023-01-01T03:30:44;96308.09;;;2.19;100.00
20013;BME280;10167;42.852;23.042;2023-01-01T03:33:19;96312.97;;;2.14;100.00
20013;BME280;10167;42.852;23.042;2023-01-01T03:35:53;96312.38;;;2.02;100.00
20013;BME280;10167;42.852;23.042;2023-01-01T03:38:27;96310.34;;;2.14;100.00
20013;BME280;10167;42.852;23.042;2023-01-01T03:41:01;96302.03;;;2.18;100.00
20013;BME280;10167;42.852;23.042;2023-01-01T03:43:38;96308.22;;;2.17;100.00
20013;BME280;10167;42.852;23.042;2023-01-01T03:46:12;96317.38;;;2.13;100.00
20013;BME280;10167;42.852;23.042;2023-01-01T03:48:44;96313.25;;;2.11;100.00
20013;BME280;10167;42.852;23.042;2023-01-01T03:51:48;96308.03;;;2.11;100.00
20013;BME280;10167;42.852;23.042;2023-01-01T03:54:52;96307.50;;;2.07;100.00
20013;BME280;10167;42.852;23.042;2023-01-01T03:57:32;96308.47;;;2.06;100.00
20013;BME280;10167;42.852;23.042;2023-01-01T04:00:05;96309.56;;;2.04;100.00
20013;BME280;10167;42.852;23.042;2023-01-01T04:02:43;96311.16;;;1.97;100.00
20013;BME280;10167;42.852;23.042;2023-01-01T04:05:16;96312.25;;;1.94;100.00
20013;BME280;10167;42.852;23.042;2023-01-01T04:07:47;96317.34;;;1.96;100.00
20013;BME280;10167;42.852;23.042;2023-01-01T04:10:15;96318.44;;;1.93;100.00
20013;BME280;10167;42.852;23.042;2023-01-01T04:12:46;96317.41;;;1.86;100.00
20013;BME280;10167;42.852;23.042;2023-01-01T04:15:17;96316.53;;;1.95;100.00
20013;BME280;10167;42.852;23.042;2023-01-01T04:17:47;96318.38;;;1.85;100.00
20013;BME280;10167;42.852;23.042;2023-01-01T04:20:18;96318.78;;;1.90;100.00
20013;BME280;10167;42.852;23.042;2023-01-01T04:22:48;96313.91;;;1.95;100.00
20013;BME280;10167;42.852;23.042;2023-01-01T04:25:17;96320.84;;;1.87;100.00
20013;BME280;10167;42.852;23.042;2023-01-01T04:27:46;96311.22;;;1.87;100.00
20013;BME280;10167;42.852;23.042;2023-01-01T04:30:16;96312.13;;;1.78;100.00
20013;BME280;10167;42.852;23.042;2023-01-01T04:32:45;96317.50;;;1.94;100.00
20013;BME280;10167;42.852;23.042;2023-01-01T04:35:16;96311.97;;;1.97;100.00
20013;BME280;10167;42.852;23.042;2023-01-01T04:37:45;96326.53;;;2.00;100.00
20013;BME280;10167;42.852;23.042;2023-01-01T04:40:15;96318.16;;;1.96;100.00
20013;BME280;10167;42.852;23.042;2023-01-01T04:42:44;96321.31;;;2.00;100.00
20013;BME280;10167;42.852;23.042;2023-01-01T04:45:13;96318.16;;;1.96;100.00
20013;BME280;10167;42.852;23.042;2023-01-01T04:47:42;96317.59;;;2.02;100.00
20013;BME280;10167;42.852;23.042;2023-01-01T04:50:11;96319.97;;;1.96;100.00
20013;BME280;10167;42.852;23.042;2023-01-01T04:52:42;96320.78;;;1.96;100.00
20013;BME280;10167;42.852;23.042;2023-01-01T04:55:11;96320.31;;;1.83;100.00
20013;BME280;10167;42.852;23.042;2023-01-01T04:57:40;96321.88;;;1.94;100.00
20013;BME280;10167;42.852;23.042;2023-01-01T05:00:11;96325.25;;;2.04;100.00
20013;BME280;10167;42.852;23.042;2023-01-01T05:02:41;96324.13;;;2.06;100.00
20013;BME280;10167;42.852;23.042;2023-01-01T05:05:10;96327.94;;;1.94;100.00
20013;BME280;10167;42.852;23.042;2023-01-01T05:07:39;96330.53;;;1.94;100.00
20013;BME280;10167;42.852;23.042;2023-01-01T05:10:09;96324.28;;;1.87;100.00
20013;BME280;10167;42.852;23.042;2023-01-01T05:12:56;96329.72;;;1.76;100.00
20013;BME280;10167;42.852;23.042;2023-01-01T05:15:25;96331.50;;;1.75;100.00
20013;BME280;10167;42.852;23.042;2023-01-01T05:17:54;96336.19;;;1.72;100.00
20013;BME280;10167;42.852;23.042;2023-01-01T05:20:23;96322.03;;;1.74;100.00
20013;BME280;10167;42.852;23.042;2023-01-01T05:22:52;96326.97;;;1.77;100.00
20013;BME280;10167;42.852;23.042;2023-01-01T05:25:23;96332.63;;;1.73;100.00
20013;BME280;10167;42.852;23.042;2023-01-01T05:27:53;96336.94;;;1.64;100.00
20013;BME280;10167;42.852;23.042;2023-01-01T05:30:22;96337.75;;;1.65;100.00
20013;BME280;10167;42.852;23.042;2023-01-01T05:32:51;96338.91;;;1.53;100.00
20013;BME280;10167;42.852;23.042;2023-01-01T05:35:20;96349.59;;;1.59;100.00
20013;BME280;10167;42.852;23.042;2023-01-01T05:37:53;96356.72;;;1.67;100.00
20013;BME280;10167;42.852;23.042;2023-01-01T05:40:23;96352.00;;;1.70;100.00
20013;BME280;10167;42.852;23.042;2023-01-01T05:42:53;96351.47;;;1.39;100.00
20013;BME280;10167;42.852;23.042;2023-01-01T05:45:22;96356.34;;;1.25;100.00
20013;BME280;10167;42.852;23.042;2023-01-01T05:47:51;96354.63;;;1.43;100.00
20013;BME280;10167;42.852;23.042;2023-01-01T05:50:20;96362.28;;;1.54;100.00
20013;BME280;10167;42.852;23.042;2023-01-01T05:52:49;96349.22;;;1.54;100.00
20013;BME280;10167;42.852;23.042;2023-01-01T05:55:21;96353.16;;;1.58;100.00
20013;BME280;10167;42.852;23.042;2023-01-01T05:57:52;96358.78;;;1.63;100.00
20013;BME280;10167;42.852;23.042;2023-01-01T06:00:21;96360.56;;;1.63;100.00
20013;BME280;10167;42.852;23.042;2023-01-01T06:02:50;96357.44;;;1.59;100.00
20013;BME280;10167;42.852;23.042;2023-01-01T06:05:21;96357.75;;;1.56;100.00
20013;BME280;10167;42.852;23.042;2023-01-01T06:07:50;96363.16;;;1.45;100.00
20013;BME280;10167;42.852;23.042;2023-01-01T06:10:19;96364.25;;;1.42;100.00
20013;BME280;10167;42.852;23.042;2023-01-01T06:12:48;96371.94;;;1.44;100.00
20013;BME280;10167;42.852;23.042;2023-01-01T06:15:19;96367.00;;;1.41;100.00
20013;BME280;10167;42.852;23.042;2023-01-01T06:17:48;96365.91;;;1.43;100.00
20013;BME280;10167;42.852;23.042;2023-01-01T06:20:18;96363.56;;;1.40;100.00
20013;BME280;10167;42.852;23.042;2023-01-01T06:22:55;96369.03;;;1.47;100.00
20013;BME280;10167;42.852;23.042;2023-01-01T06:25:42;96364.34;;;1.51;100.00
20013;BME280;10167;42.852;23.042;2023-01-01T06:28:12;96369.28;;;1.54;100.00
20013;BME280;10167;42.852;23.042;2023-01-01T06:30:45;96370.78;;;1.56;100.00
20013;BME280;10167;42.852;23.042;2023-01-01T06:33:14;96361.41;;;1.63;100.00
20013;BME280;10167;42.852;23.042;2023-01-01T06:35:43;96372.75;;;1.72;100.00
20013;BME280;10167;42.852;23.042;2023-01-01T06:38:12;96362.09;;;1.83;100.00
20013;BME280;10167;42.852;23.042;2023-01-01T06:40:42;96367.94;;;1.95;100.00
20013;BME280;10167;42.852;23.042;2023-01-01T06:43:13;96363.31;;;1.89;100.00
20013;BME280;10167;42.852;23.042;2023-01-01T06:45:45;96366.41;;;2.02;100.00
20013;BME280;10167;42.852;23.042;2023-01-01T06:48:14;96360.97;;;2.13;100.00
20013;BME280;10167;42.852;23.042;2023-01-01T06:50:43;96371.41;;;2.31;100.00
20013;BME280;10167;42.852;23.042;2023-01-01T06:53:12;96368.34;;;2.35;100.00
20013;BME280;10167;42.852;23.042;2023-01-01T06:55:47;96371.69;;;2.63;100.00
20013;BME280;10167;42.852;23.042;2023-01-01T06:58:23;96378.94;;;2.69;100.00
20013;BME280;10167;42.852;23.042;2023-01-01T07:00:54;96373.97;;;2.84;100.00
20013;BME280;10167;42.852;23.042;2023-01-01T07:03:35;96385.38;;;3.01;100.00
20013;BME280;10167;42.852;23.042;2023-01-01T07:06:05;96379.22;;;3.10;100.00
20013;BME280;10167;42.852;23.042;2023-01-01T07:08:35;96382.56;;;3.20;100.00
20013;BME280;10167;42.852;23.042;2023-01-01T07:11:07;96375.41;;;3.30;100.00
20013;BME280;10167;42.852;23.042;2023-01-01T07:13:36;96382.09;;;3.24;100.00
20013;BME280;10167;42.852;23.042;2023-01-01T07:16:08;96380.31;;;3.59;100.00
20013;BME280;10167;42.852;23.042;2023-01-01T07:18:40;96379.41;;;3.84;100.00
20013;BME280;10167;42.852;23.042;2023-01-01T07:21:25;96386.34;;;4.01;100.00
20013;BME280;10167;42.852;23.042;2023-01-01T07:23:57;96378.41;;;4.27;100.00
20013;BME280;10167;42.852;23.042;2023-01-01T07:26:27;96378.75;;;4.57;100.00
20013;BME280;10167;42.852;23.042;2023-01-01T07:28:58;96382.22;;;4.82;100.00
20013;BME280;10167;42.852;23.042;2023-01-01T07:31:38;96385.94;;;5.11;100.00
20013;BME280;10167;42.852;23.042;2023-01-01T07:34:11;96389.84;;;5.32;100.00
20013;BME280;10167;42.852;23.042;2023-01-01T07:36:41;96389.78;;;5.56;100.00
20013;BME280;10167;42.852;23.042;2023-01-01T07:39:10;96390.91;;;5.70;100.00
20013;BME280;10167;42.852;23.042;2023-01-01T07:41:39;96398.31;;;6.13;100.00
20013;BME280;10167;42.852;23.042;2023-01-01T07:44:12;96400.38;;;6.26;100.00
20013;BME280;10167;42.852;23.042;2023-01-01T07:46:44;96411.00;;;6.64;100.00
20013;BME280;10167;42.852;23.042;2023-01-01T07:49:13;96405.16;;;6.99;100.00
20013;BME280;10167;42.852;23.042;2023-01-01T07:51:42;96401.28;;;7.10;100.00
20013;BME280;10167;42.852;23.042;2023-01-01T07:54:11;96415.09;;;7.26;100.00
20013;BME280;10167;42.852;23.042;2023-01-01T07:56:40;96410.88;;;7.03;100.00
20013;BME280;10167;42.852;23.042;2023-01-01T07:59:09;96414.84;;;7.36;100.00
20013;BME280;10167;42.852;23.042;2023-01-01T08:01:48;96412.97;;;7.45;100.00
20013;BME280;10167;42.852;23.042;2023-01-01T08:04:17;96418.81;;;7.55;100.00
20013;BME280;10167;42.852;23.042;2023-01-01T08:06:46;96419.31;;;7.36;100.00
20013;BME280;10167;42.852;23.042;2023-01-01T08:09:16;96419.34;;;7.13;100.00
20013;BME280;10167;42.852;23.042;2023-01-01T08:11:45;96418.75;;;7.25;100.00
20013;BME280;10167;42.852;23.042;2023-01-01T08:14:14;96425.50;;;7.43;100.00
20013;BME280;10167;42.852;23.042;2023-01-01T08:16:43;96427.34;;;7.86;100.00
20013;BME280;10167;42.852;23.042;2023-01-01T08:19:14;96428.03;;;8.24;100.00
20013;BME280;10167;42.852;23.042;2023-01-01T08:21:43;96426.53;;;8.66;100.00
20013;BME280;10167;42.852;23.042;2023-01-01T08:24:13;96428.00;;;8.90;100.00
20013;BME280;10167;42.852;23.042;2023-01-01T08:26:42;96430.50;;;9.19;100.00
20013;BME280;10167;42.852;23.042;2023-01-01T08:29:11;96436.22;;;9.23;100.00
20013;BME280;10167;42.852;23.042;2023-01-01T08:31:41;96433.41;;;9.52;100.00
20013;BME280;10167;42.852;23.042;2023-01-01T08:34:11;96438.34;;;9.90;100.00
20013;BME280;10167;42.852;23.042;2023-01-01T08:36:41;96436.63;;;10.10;100.00
20013;BME280;10167;42.852;23.042;2023-01-01T08:39:11;96437.78;;;10.01;100.00
20013;BME280;10167;42.852;23.042;2023-01-01T08:41:42;96436.25;;;9.85;100.00
20013;BME280;10167;42.852;23.042;2023-01-01T08:44:15;96429.03;;;10.00;100.00
20013;BME280;10167;42.852;23.042;2023-01-01T08:46:44;96438.88;;;10.54;100.00
20013;BME280;10167;42.852;23.042;2023-01-01T08:49:13;96437.53;;;10.78;100.00
20013;BME280;10167;42.852;23.042;2023-01-01T08:51:44;96432.09;;;11.32;100.00
20013;BME280;10167;42.852;23.042;2023-01-01T08:54:13;96441.09;;;11.57;100.00
20013;BME280;10167;42.852;23.042;2023-01-01T08:56:43;96445.16;;;11.86;100.00
20013;BME280;10167;42.852;23.042;2023-01-01T08:59:12;96434.97;;;11.83;100.00
20013;BME280;10167;42.852;23.042;2023-01-01T09:01:42;96427.06;;;12.34;100.00
20013;BME280;10167;42.852;23.042;2023-01-01T09:04:11;96428.53;;;12.24;100.00
20013;BME280;10167;42.852;23.042;2023-01-01T09:06:43;96422.94;;;12.45;100.00
20013;BME280;10167;42.852;23.042;2023-01-01T09:09:13;96413.44;;;12.69;100.00
20013;BME280;10167;42.852;23.042;2023-01-01T09:11:49;96412.81;;;12.73;100.00
20013;BME280;10167;42.852;23.042;2023-01-01T09:14:19;96403.50;;;12.51;100.00
20013;BME280;10167;42.852;23.042;2023-01-01T09:16:49;96402.91;;;12.43;100.00
20013;BME280;10167;42.852;23.042;2023-01-01T09:19:18;96399.22;;;12.50;100.00
20013;BME280;10167;42.852;23.042;2023-01-01T09:21:49;96393.75;;;12.39;100.00
20013;BME280;10167;42.852;23.042;2023-01-01T09:24:19;96385.06;;;12.56;100.00
20013;BME280;10167;42.852;23.042;2023-01-01T09:26:48;96385.69;;;12.58;100.00
20013;BME280;10167;42.852;23.042;2023-01-01T09:29:17;96387.63;;;13.07;100.00
20013;BME280;10167;42.852;23.042;2023-01-01T09:31:47;96382.47;;;13.19;100.00
20013;BME280;10167;42.852;23.042;2023-01-01T09:34:17;96371.78;;;12.88;100.00
20013;BME280;10167;42.852;23.042;2023-01-01T09:36:46;96367.78;;;13.35;100.00
20013;BME280;10167;42.852;23.042;2023-01-01T09:39:18;96369.34;;;13.67;100.00
20013;BME280;10167;42.852;23.042;2023-01-01T09:42:15;96374.34;;;13.32;100.00
20013;BME280;10167;42.852;23.042;2023-01-01T09:45:00;96371.66;;;13.82;100.00
20013;BME280;10167;42.852;23.042;2023-01-01T09:47:34;96362.78;;;14.06;100.00
20013;BME280;10167;42.852;23.042;2023-01-01T09:50:10;96369.06;;;14.30;100.00
20013;BME280;10167;42.852;23.042;2023-01-01T09:52:45;96366.41;;;14.48;100.00
20013;BME280;10167;42.852;23.042;2023-01-01T09:55:27;96362.47;;;14.33;100.00
20013;BME280;10167;42.852;23.042;2023-01-01T09:57:58;96369.81;;;14.67;99.56
20013;BME280;10167;42.852;23.042;2023-01-01T10:00:29;96360.78;;;14.68;99.02
20013;BME280;10167;42.852;23.042;2023-01-01T10:03:12;96356.78;;;14.77;98.49
20013;BME280;10167;42.852;23.042;2023-01-01T10:05:53;96343.22;;;14.90;98.42
20013;BME280;10167;42.852;23.042;2023-01-01T10:08:33;96342.94;;;14.99;98.10
20013;BME280;10167;42.852;23.042;2023-01-01T10:11:12;96346.75;;;15.03;97.79
20013;BME280;10167;42.852;23.042;2023-01-01T10:13:44;96334.44;;;15.02;98.02
20013;BME280;10167;42.852;23.042;2023-01-01T10:16:20;96340.41;;;15.15;97.56
20013;BME280;10167;42.852;23.042;2023-01-01T10:18:55;96339.34;;;15.16;97.01
20013;BME280;10167;42.852;23.042;2023-01-01T10:21:27;96343.19;;;15.20;96.81
20013;BME280;10167;42.852;23.042;2023-01-01T10:24:02;96328.56;;;15.00;97.83
20013;BME280;10167;42.852;23.042;2023-01-01T10:26:34;96326.66;;;14.88;97.83
20013;BME280;10167;42.852;23.042;2023-01-01T10:29:13;96325.53;;;14.96;97.55
20013;BME280;10167;42.852;23.042;2023-01-01T10:31:45;96317.84;;;14.88;98.13
20013;BME280;10167;42.852;23.042;2023-01-01T10:34:16;96311.53;;;14.71;99.46
20013;BME280;10167;42.852;23.042;2023-01-01T10:36:47;96314.91;;;14.66;99.88
20013;BME280;10167;42.852;23.042;2023-01-01T10:39:18;96306.06;;;14.54;100.00
20013;BME280;10167;42.852;23.042;2023-01-01T10:41:49;96304.06;;;14.31;100.00
20013;BME280;10167;42.852;23.042;2023-01-01T10:44:25;96286.91;;;14.27;100.00
20013;BME280;10167;42.852;23.042;2023-01-01T10:46:57;96292.00;;;14.29;100.00
20013;BME280;10167;42.852;23.042;2023-01-01T10:49:27;96282.72;;;14.20;100.00
20013;BME280;10167;42.852;23.042;2023-01-01T10:51:57;96280.97;;;13.95;100.00
20013;BME280;10167;42.852;23.042;2023-01-01T10:54:34;96276.31;;;13.91;100.00
20013;BME280;10167;42.852;23.042;2023-01-01T10:57:15;96273.72;;;13.84;100.00
20013;BME280;10167;42.852;23.042;2023-01-01T10:59:46;96272.56;;;13.62;100.00
20013;BME280;10167;42.852;23.042;2023-01-01T11:02:22;96276.59;;;13.46;100.00
20013;BME280;10167;42.852;23.042;2023-01-01T11:05:12;96267.19;;;13.25;100.00
20013;BME280;10167;42.852;23.042;2023-01-01T11:07:48;96260.25;;;13.24;100.00
20013;BME280;10167;42.852;23.042;2023-01-01T11:10:19;96257.81;;;12.73;100.00
20013;BME280;10167;42.852;23.042;2023-01-01T11:12:50;96255.03;;;12.61;100.00
20013;BME280;10167;42.852;23.042;2023-01-01T11:15:38;96248.50;;;12.64;100.00
20013;BME280;10167;42.852;23.042;2023-01-01T11:18:12;96247.19;;;12.73;100.00
20013;BME280;10167;42.852;23.042;2023-01-01T11:20:42;96237.63;;;12.65;100.00
20013;BME280;10167;42.852;23.042;2023-01-01T11:23:26;96240.06;;;12.67;100.00
20013;BME280;10167;42.852;23.042;2023-01-01T11:26:05;96232.69;;;12.69;100.00
20013;BME280;10167;42.852;23.042;2023-01-01T11:28:36;96243.38;;;12.62;100.00
20013;BME280;10167;42.852;23.042;2023-01-01T11:31:09;96242.69;;;12.73;100.00
20013;BME280;10167;42.852;23.042;2023-01-01T11:33:46;96233.63;;;12.81;100.00
20013;BME280;10167;42.852;23.042;2023-01-01T11:36:22;96225.75;;;12.68;100.00
20013;BME280;10167;42.852;23.042;2023-01-01T11:39:07;96223.59;;;12.83;100.00
20013;BME280;10167;42.852;23.042;2023-01-01T11:41:43;96217.75;;;12.93;100.00
20013;BME280;10167;42.852;23.042;2023-01-01T11:44:25;96211.91;;;12.59;100.00
20013;BME280;10167;42.852;23.042;2023-01-01T11:46:57;96213.00;;;12.27;100.00
20013;BME280;10167;42.852;23.042;2023-01-01T11:49:29;96213.63;;;12.22;100.00
20013;BME280;10167;42.852;23.042;2023-01-01T11:51:59;96205.09;;;12.14;100.00
20013;BME280;10167;42.852;23.042;2023-01-01T11:54:30;96208.63;;;12.39;100.00
20013;BME280;10167;42.852;23.042;2023-01-01T11:57:08;96205.03;;;12.52;100.00
20013;BME280;10167;42.852;23.042;2023-01-01T11:59:45;96207.72;;;12.45;100.00
20013;BME280;10167;42.852;23.042;2023-01-01T12:02:20;96195.13;;;12.41;100.00
20013;BME280;10167;42.852;23.042;2023-01-01T12:05:07;96205.78;;;12.59;100.00
20013;BME280;10167;42.852;23.042;2023-01-01T12:07:39;96199.69;;;12.77;100.00
20013;BME280;10167;42.852;23.042;2023-01-01T12:10:18;96195.91;;;12.66;100.00
20013;BME280;10167;42.852;23.042;2023-01-01T12:12:52;96196.19;;;12.58;100.00
20013;BME280;10167;42.852;23.042;2023-01-01T12:15:30;96198.34;;;12.67;100.00
20013;BME280;10167;42.852;23.042;2023-01-01T12:18:06;96191.72;;;12.77;100.00
20013;BME280;10167;42.852;23.042;2023-01-01T12:20:43;96198.06;;;12.76;100.00
20013;BME280;10167;42.852;23.042;2023-01-01T12:23:16;96196.72;;;12.91;100.00
20013;BME280;10167;42.852;23.042;2023-01-01T12:25:51;96188.53;;;12.93;100.00
20013;BME280;10167;42.852;23.042;2023-01-01T12:28:31;96186.59;;;13.00;100.00
20013;BME280;10167;42.852;23.042;2023-01-01T12:31:11;96186.19;;;12.53;100.00
20013;BME280;10167;42.852;23.042;2023-01-01T12:33:57;96187.91;;;12.72;100.00
20013;BME280;10167;42.852;23.042;2023-01-01T12:36:39;96181.44;;;12.62;100.00
20013;BME280;10167;42.852;23.042;2023-01-01T12:42:56;96181.94;;;12.52;100.00
20013;BME280;10167;42.852;23.042;2023-01-01T12:45:42;96183.69;;;12.40;100.00
20013;BME280;10167;42.852;23.042;2023-01-01T12:48:46;96185.84;;;12.50;100.00
20013;BME280;10167;42.852;23.042;2023-01-01T12:51:30;96183.72;;;12.58;100.00
20013;BME280;10167;42.852;23.042;2023-01-01T12:54:31;96179.00;;;12.60;100.00
20013;BME280;10167;42.852;23.042;2023-01-01T12:57:09;96175.75;;;12.58;100.00
20013;BME280;10167;42.852;23.042;2023-01-01T12:59:44;96170.00;;;12.36;100.00
20013;BME280;10167;42.852;23.042;2023-01-01T13:02:19;96175.09;;;12.38;100.00
20013;BME280;10167;42.852;23.042;2023-01-01T13:04:53;96179.38;;;12.39;100.00
20013;BME280;10167;42.852;23.042;2023-01-01T13:07:28;96177.91;;;12.18;100.00
20013;BME280;10167;42.852;23.042;2023-01-01T13:10:05;96171.41;;;12.39;100.00
20013;BME280;10167;42.852;23.042;2023-01-01T13:12:38;96166.44;;;12.49;100.00
20013;BME280;10167;42.852;23.042;2023-01-01T13:15:43;96172.16;;;12.46;100.00
20013;BME280;10167;42.852;23.042;2023-01-01T13:18:21;96168.81;;;12.57;100.00
20013;BME280;10167;42.852;23.042;2023-01-01T13:21:16;96178.28;;;12.71;100.00
20013;BME280;10167;42.852;23.042;2023-01-01T13:23:50;96176.25;;;12.49;100.00